sensor_id;sensor_type;location;lat;lon;timestamp;temperature;humidity
21207;DHT22;10761;48.532;8.026;2022-11-20T00:01:26;7.70;99.90
21207;DHT22;10761;48.532;8.026;2022-11-20T00:03:53;7.70;99.90
21207;DHT22;10761;48.532;8.026;2022-11-20T00:06:20;7.70;99.90
21207;DHT22;10761;48.532;8.026;2022-11-20T00:08:47;7.70;99.90
21207;DHT22;10761;48.532;8.026;2022-11-20T00:11:20;7.70;99.90
21207;DHT22;10761;48.532;8.026;2022-11-20T00:13:48;7.60;99.90
21207;DHT22;10761;48.532;8.026;2022-11-20T00:16:16;7.60;99.90
21207;DHT22;10761;48.532;8.026;2022-11-20T00:18:42;7.60;99.90
21207;DHT22;10761;48.532;8.026;2022-11-20T00:21:14;7.70;99.90
21207;DHT22;10761;48.532;8.026;2022-11-20T00:23:41;7.60;99.90
21207;DHT22;10761;48.532;8.026;2022-11-20T00:26:09;7.60;99.90
21207;DHT22;10761;48.532;8.026;2022-11-20T00:28:35;7.50;99.90
21207;DHT22;10761;48.532;8.026;2022-11-20T00:31:21;7.50;99.90
21207;DHT22;10761;48.532;8.026;2022-11-20T00:33:47;7.50;99.90
21207;DHT22;10761;48.532;8.026;2022-11-20T00:36:15;7.50;99.90
21207;DHT22;10761;48.532;8.026;2022-11-20T00:38:41;7.50;99.90
21207;DHT22;10761;48.532;8.026;2022-11-20T00:41:10;7.50;99.90
21207;DHT22;10761;48.532;8.026;2022-11-20T00:43:37;7.50;99.90
21207;DHT22;10761;48.532;8.026;2022-11-20T00:46:05;7.50;99.90
21207;DHT22;10761;48.532;8.026;2022-11-20T00:48:32;7.60;99.90
21207;DHT22;10761;48.532;8.026;2022-11-20T00:50:58;7.60;99.90
21207;DHT22;10761;48.532;8.026;2022-11-20T00:53:24;7.50;99.90
21207;DHT22;10761;48.532;8.026;2022-11-20T00:55:55;7.50;99.90
21207;DHT22;10761;48.532;8.026;2022-11-20T00:58:21;7.50;99.90
21207;DHT22;10761;48.532;8.026;2022-11-20T01:00:47;7.50;99.90
21207;DHT22;10761;48.532;8.026;2022-11-20T01:03:15;7.50;99.90
21207;DHT22;10761;48.532;8.026;2022-11-20T01:05:41;7.50;99.90
21207;DHT22;10761;48.532;8.026;2022-11-20T01:08:07;7.50;99.90
21207;DHT22;10761;48.532;8.026;2022-11-20T01:10:33;7.50;99.90
21207;DHT22;10761;48.532;8.026;2022-11-20T01:12:58;7.50;99.90
21207;DHT22;10761;48.532;8.026;2022-11-20T01:15:53;7.50;99.90
21207;DHT22;10761;48.532;8.026;2022-11-20T01:18:19;7.50;99.90
21207;DHT22;10761;48.532;8.026;2022-11-20T01:20:44;7.40;99.90
21207;DHT22;10761;48.532;8.026;2022-11-20T01:23:10;7.50;99.90
21207;DHT22;10761;48.532;8.026;2022-11-20T01:25:35;7.50;99.90
21207;DHT22;10761;48.532;8.026;2022-11-20T01:28:01;7.40;99.90
21207;DHT22;10761;48.532;8.026;2022-11-20T01:30:27;7.40;99.90
21207;DHT22;10761;48.532;8.026;2022-11-20T01:32:55;7.50;99.90
21207;DHT22;10761;48.532;8.026;2022-11-20T01:35:20;7.50;99.90
21207;DHT22;10761;48.532;8.026;2022-11-20T01:37:46;7.40;99.90
21207;DHT22;10761;48.532;8.026;2022-11-20T01:40:12;7.50;99.90
21207;DHT22;10761;48.532;8.026;2022-11-20T01:42:37;7.50;99.90
21207;DHT22;10761;48.532;8.026;2022-11-20T01:45:50;7.50;99.90
21207;DHT22;10761;48.532;8.026;2022-11-20T01:48:22;7.40;99.90
21207;DHT22;10761;48.532;8.026;2022-11-20T01:50:50;7.40;99.90
21207;DHT22;10761;48.532;8.026;2022-11-20T01:53:18;7.40;99.90
21207;DHT22;10761;48.532;8.026;2022-11-20T01:55:49;7.40;99.90
21207;DHT22;10761;48.532;8.026;2022-11-20T01:58:21;7.30;99.90
21207;DHT22;10761;48.532;8.026;2022-11-20T02:00:48;7.30;99.90
21207;DHT22;10761;48.532;8.026;2022-11-20T02:03:16;7.30;99.90
21207;DHT22;10761;48.532;8.026;2022-11-20T02:05:57;7.30;99.90
21207;DHT22;10761;48.532;8.026;2022-11-20T02:08:24;7.30;99.90
21207;DHT22;10761;48.532;8.026;2022-11-20T02:10:50;7.30;99.90
21207;DHT22;10761;48.532;8.026;2022-11-20T02:13:16;7.30;99.90
21207;DHT22;10761;48.532;8.026;2022-11-20T02:16:01;7.20;99.90
21207;DHT22;10761;48.532;8.026;2022-11-20T02:18:27;7.20;99.90
21207;DHT22;10761;48.532;8.026;2022-11-20T02:21:01;7.20;99.90
21207;DHT22;10761;48.532;8.026;2022-11-20T02:23:38;7.20;99.90
21207;DHT22;10761;48.532;8.026;2022-11-20T02:26:06;7.30;99.90
21207;DHT22;10761;48.532;8.026;2022-11-20T02:28:34;7.30;99.90
21207;DHT22;10761;48.532;8.026;2022-11-20T02:31:00;7.30;99.90
21207;DHT22;10761;48.532;8.026;2022-11-20T02:33:26;7.40;99.90
21207;DHT22;10761;48.532;8.026;2022-11-20T02:35:52;7.40;99.90
21207;DHT22;10761;48.532;8.026;2022-11-20T02:38:17;7.40;99.90
21207;DHT22;10761;48.532;8.026;2022-11-20T02:40:43;7.40;99.90
21207;DHT22;10761;48.532;8.026;2022-11-20T02:43:09;7.30;99.90
21207;DHT22;10761;48.532;8.026;2022-11-20T02:45:35;7.30;99.90
21207;DHT22;10761;48.532;8.026;2022-11-20T02:48:00;7.40;99.90
21207;DHT22;10761;48.532;8.026;2022-11-20T02:50:26;7.30;99.90
21207;DHT22;10761;48.532;8.026;2022-11-20T02:52:52;7.40;99.90
21207;DHT22;10761;48.532;8.026;2022-11-20T02:55:17;7.30;99.90
21207;DHT22;10761;48.532;8.026;2022-11-20T02:57:43;7.20;99.90
21207;DHT22;10761;48.532;8.026;2022-11-20T03:00:09;7.20;99.90
21207;DHT22;10761;48.532;8.026;2022-11-20T03:02:35;7.10;99.90
21207;DHT22;10761;48.532;8.026;2022-11-20T03:05:00;7.10;99.90
21207;DHT22;10761;48.532;8.026;2022-11-20T03:07:26;7.10;99.90
21207;DHT22;10761;48.532;8.026;2022-11-20T03:09:52;7.10;99.90
21207;DHT22;10761;48.532;8.026;2022-11-20T03:12:17;7.00;99.90
21207;DHT22;10761;48.532;8.026;2022-11-20T03:14:43;7.00;99.90
21207;DHT22;10761;48.532;8.026;2022-11-20T03:17:08;7.10;99.90
21207;DHT22;10761;48.532;8.026;2022-11-20T03:19:34;7.10;99.90
21207;DHT22;10761;48.532;8.026;2022-11-20T03:22:00;7.10;99.90
21207;DHT22;10761;48.532;8.026;2022-11-20T03:24:26;7.10;99.90
21207;DHT22;10761;48.532;8.026;2022-11-20T03:26:52;7.10;99.90
21207;DHT22;10761;48.532;8.026;2022-11-20T03:29:17;7.10;99.90
21207;DHT22;10761;48.532;8.026;2022-11-20T03:31:43;7.20;99.90
21207;DHT22;10761;48.532;8.026;2022-11-20T03:34:10;7.10;99.90
21207;DHT22;10761;48.532;8.026;2022-11-20T03:36:40;7.10;99.90
21207;DHT22;10761;48.532;8.026;2022-11-20T03:39:06;7.10;99.90
21207;DHT22;10761;48.532;8.026;2022-11-20T03:41:37;7.10;99.90
21207;DHT22;10761;48.532;8.026;2022-11-20T03:44:04;7.20;99.90
21207;DHT22;10761;48.532;8.026;2022-11-20T03:46:30;7.20;99.90
21207;DHT22;10761;48.532;8.026;2022-11-20T03:48:56;7.20;99.90
21207;DHT22;10761;48.532;8.026;2022-11-20T03:51:24;7.20;99.90
21207;DHT22;10761;48.532;8.026;2022-11-20T03:53:52;7.20;99.90
21207;DHT22;10761;48.532;8.026;2022-11-20T03:56:20;7.20;99.90
21207;DHT22;10761;48.532;8.026;2022-11-20T03:58:47;7.20;99.90
21207;DHT22;10761;48.532;8.026;2022-11-20T04:01:16;7.20;99.90
21207;DHT22;10761;48.532;8.026;2022-11-20T04:03:42;7.20;99.90
21207;DHT22;10761;48.532;8.026;2022-11-20T04:06:12;7.20;99.90
21207;DHT22;10761;48.532;8.026;2022-11-20T04:08:38;7.20;99.90
21207;DHT22;10761;48.532;8.026;2022-11-20T04:11:12;7.20;99.90
21207;DHT22;10761;48.532;8.026;2022-11-20T04:13:38;7.20;99.90
21207;DHT22;10761;48.532;8.026;2022-11-20T04:16:04;7.20;99.90
21207;DHT22;10761;48.532;8.026;2022-11-20T04:18:30;7.20;99.90
21207;DHT22;10761;48.532;8.026;2022-11-20T04:20:59;7.20;99.90
21207;DHT22;10761;48.532;8.026;2022-11-20T04:23:25;7.20;99.90
21207;DHT22;10761;48.532;8.026;2022-11-20T04:25:51;7.20;99.90
21207;DHT22;10761;48.532;8.026;2022-11-20T04:28:17;7.20;99.90
21207;DHT22;10761;48.532;8.026;2022-11-20T04:30:43;7.10;99.90
21207;DHT22;10761;48.532;8.026;2022-11-20T04:33:08;7.10;99.90
21207;DHT22;10761;48.532;8.026;2022-11-20T04:35:35;7.10;99.90
21207;DHT22;10761;48.532;8.026;2022-11-20T04:38:01;7.10;99.90
21207;DHT22;10761;48.532;8.026;2022-11-20T04:40:27;7.10;99.90
21207;DHT22;10761;48.532;8.026;2022-11-20T04:42:54;7.20;99.90
21207;DHT22;10761;48.532;8.026;2022-11-20T04:45:19;7.10;99.90
21207;DHT22;10761;48.532;8.026;2022-11-20T04:47:45;7.10;99.90
21207;DHT22;10761;48.532;8.026;2022-11-20T04:50:11;7.10;99.90
21207;DHT22;10761;48.532;8.026;2022-11-20T04:52:36;7.10;99.90
21207;DHT22;10761;48.532;8.026;2022-11-20T04:55:02;7.10;99.90
21207;DHT22;10761;48.532;8.026;2022-11-20T04:57:28;7.10;99.90
21207;DHT22;10761;48.532;8.026;2022-11-20T04:59:53;7.10;99.90
21207;DHT22;10761;48.532;8.026;2022-11-20T05:02:19;7.00;99.90
21207;DHT22;10761;48.532;8.026;2022-11-20T05:04:45;7.10;99.90
21207;DHT22;10761;48.532;8.026;2022-11-20T05:07:10;7.00;99.90
21207;DHT22;10761;48.532;8.026;2022-11-20T05:09:36;7.10;99.90
21207;DHT22;10761;48.532;8.026;2022-11-20T05:12:02;7.10;99.90
21207;DHT22;10761;48.532;8.026;2022-11-20T05:14:27;7.10;99.90
21207;DHT22;10761;48.532;8.026;2022-11-20T05:16:53;7.10;99.90
21207;DHT22;10761;48.532;8.026;2022-11-20T05:19:18;7.10;99.90
21207;DHT22;10761;48.532;8.026;2022-11-20T05:21:44;7.20;99.90
21207;DHT22;10761;48.532;8.026;2022-11-20T05:24:10;7.20;99.90
21207;DHT22;10761;48.532;8.026;2022-11-20T05:26:35;7.20;99.90
21207;DHT22;10761;48.532;8.026;2022-11-20T05:29:01;7.30;99.90
21207;DHT22;10761;48.532;8.026;2022-11-20T05:31:27;7.30;99.90
21207;DHT22;10761;48.532;8.026;2022-11-20T05:33:53;7.30;99.90
21207;DHT22;10761;48.532;8.026;2022-11-20T05:36:19;7.30;99.90
21207;DHT22;10761;48.532;8.026;2022-11-20T05:38:45;7.30;99.90
21207;DHT22;10761;48.532;8.026;2022-11-20T05:41:16;7.30;99.90
21207;DHT22;10761;48.532;8.026;2022-11-20T05:43:44;7.30;99.90
21207;DHT22;10761;48.532;8.026;2022-11-20T05:46:12;7.30;99.90
21207;DHT22;10761;48.532;8.026;2022-11-20T05:48:39;7.30;99.90
21207;DHT22;10761;48.532;8.026;2022-11-20T05:51:08;7.30;99.90
21207;DHT22;10761;48.532;8.026;2022-11-20T05:53:34;7.40;99.90
21207;DHT22;10761;48.532;8.026;2022-11-20T05:56:02;7.40;99.90
21207;DHT22;10761;48.532;8.026;2022-11-20T05:58:28;7.40;99.90
21207;DHT22;10761;48.532;8.026;2022-11-20T06:00:54;7.40;99.90
21207;DHT22;10761;48.532;8.026;2022-11-20T06:03:20;7.40;99.90
21207;DHT22;10761;48.532;8.026;2022-11-20T06:05:46;7.40;99.90
21207;DHT22;10761;48.532;8.026;2022-11-20T06:08:12;7.40;99.90
21207;DHT22;10761;48.532;8.026;2022-11-20T06:10:37;7.40;99.90
21207;DHT22;10761;48.532;8.026;2022-11-20T06:13:03;7.30;99.90
21207;DHT22;10761;48.532;8.026;2022-11-20T06:15:29;7.30;99.90
21207;DHT22;10761;48.532;8.026;2022-11-20T06:17:55;7.30;99.90
21207;DHT22;10761;48.532;8.026;2022-11-20T06:20:21;7.30;99.90
21207;DHT22;10761;48.532;8.026;2022-11-20T06:22:47;7.30;99.90
21207;DHT22;10761;48.532;8.026;2022-11-20T06:25:13;7.30;99.90
21207;DHT22;10761;48.532;8.026;2022-11-20T06:27:39;7.30;99.90
21207;DHT22;10761;48.532;8.026;2022-11-20T06:30:05;7.20;99.90
21207;DHT22;10761;48.532;8.026;2022-11-20T06:32:31;7.30;99.90
21207;DHT22;10761;48.532;8.026;2022-11-20T06:34:56;7.30;99.90
21207;DHT22;10761;48.532;8.026;2022-11-20T06:37:22;7.30;99.90
21207;DHT22;10761;48.532;8.026;2022-11-20T06:39:47;7.30;99.90
21207;DHT22;10761;48.532;8.026;2022-11-20T06:42:13;7.30;99.90
21207;DHT22;10761;48.532;8.026;2022-11-20T06:44:38;7.30;99.90
21207;DHT22;10761;48.532;8.026;2022-11-20T06:47:04;7.30;99.90
21207;DHT22;10761;48.532;8.026;2022-11-20T06:49:30;7.30;99.90
21207;DHT22;10761;48.532;8.026;2022-11-20T06:51:55;7.30;99.90
21207;DHT22;10761;48.532;8.026;2022-11-20T06:54:21;7.30;99.90
21207;DHT22;10761;48.532;8.026;2022-11-20T06:56:47;7.30;99.90
21207;DHT22;10761;48.532;8.026;2022-11-20T06:59:14;7.30;99.90
21207;DHT22;10761;48.532;8.026;2022-11-20T07:01:39;7.20;99.90
21207;DHT22;10761;48.532;8.026;2022-11-20T07:04:05;7.20;99.90
21207;DHT22;10761;48.532;8.026;2022-11-20T07:06:31;7.20;99.90
21207;DHT22;10761;48.532;8.026;2022-11-20T07:08:57;7.20;99.90
21207;DHT22;10761;48.532;8.026;2022-11-20T07:11:23;7.10;99.90
21207;DHT22;10761;48.532;8.026;2022-11-20T07:13:49;7.10;99.90
21207;DHT22;10761;48.532;8.026;2022-11-20T07:16:15;7.10;99.90
21207;DHT22;10761;48.532;8.026;2022-11-20T07:18:41;7.10;99.90
21207;DHT22;10761;48.532;8.026;2022-11-20T07:21:08;7.10;99.90
21207;DHT22;10761;48.532;8.026;2022-11-20T07:23:35;7.10;99.90
21207;DHT22;10761;48.532;8.026;2022-11-20T07:26:09;7.00;99.90
21207;DHT22;10761;48.532;8.026;2022-11-20T07:28:36;7.00;99.90
21207;DHT22;10761;48.532;8.026;2022-11-20T07:31:02;6.90;99.90
21207;DHT22;10761;48.532;8.026;2022-11-20T07:33:28;6.90;99.90
21207;DHT22;10761;48.532;8.026;2022-11-20T07:35:54;6.90;99.90
21207;DHT22;10761;48.532;8.026;2022-11-20T07:38:19;6.90;99.90
21207;DHT22;10761;48.532;8.026;2022-11-20T07:40:45;6.90;99.90
21207;DHT22;10761;48.532;8.026;2022-11-20T07:43:10;6.90;99.90
21207;DHT22;10761;48.532;8.026;2022-11-20T07:45:36;6.80;99.90
21207;DHT22;10761;48.532;8.026;2022-11-20T07:48:02;6.80;99.90
21207;DHT22;10761;48.532;8.026;2022-11-20T07:50:27;6.80;99.90
21207;DHT22;10761;48.532;8.026;2022-11-20T07:53:03;6.80;99.90
21207;DHT22;10761;48.532;8.026;2022-11-20T07:55:29;6.80;99.90
21207;DHT22;10761;48.532;8.026;2022-11-20T07:57:56;6.80;99.90
21207;DHT22;10761;48.532;8.026;2022-11-20T08:00:22;6.80;99.90
21207;DHT22;10761;48.532;8.026;2022-11-20T08:02:48;6.80;99.90
21207;DHT22;10761;48.532;8.026;2022-11-20T08:05:14;6.80;99.90
21207;DHT22;10761;48.532;8.026;2022-11-20T08:07:41;6.80;99.90
21207;DHT22;10761;48.532;8.026;2022-11-20T08:10:08;6.80;99.90
21207;DHT22;10761;48.532;8.026;2022-11-20T08:12:34;6.80;99.90
21207;DHT22;10761;48.532;8.026;2022-11-20T08:15:18;6.70;99.90
21207;DHT22;10761;48.532;8.026;2022-11-20T08:17:43;6.80;99.90
21207;DHT22;10761;48.532;8.026;2022-11-20T08:20:09;6.80;99.90
21207;DHT22;10761;48.532;8.026;2022-11-20T08:22:35;6.80;99.90
21207;DHT22;10761;48.532;8.026;2022-11-20T08:25:01;6.80;99.90
21207;DHT22;10761;48.532;8.026;2022-11-20T08:27:27;6.70;99.90
21207;DHT22;10761;48.532;8.026;2022-11-20T08:29:52;6.80;99.90
21207;DHT22;10761;48.532;8.026;2022-11-20T08:32:18;6.80;99.90
21207;DHT22;10761;48.532;8.026;2022-11-20T08:34:43;6.70;99.90
21207;DHT22;10761;48.532;8.026;2022-11-20T08:37:09;6.80;99.90
21207;DHT22;10761;48.532;8.026;2022-11-20T08:39:35;6.80;99.90
21207;DHT22;10761;48.532;8.026;2022-11-20T08:42:00;6.80;99.90
21207;DHT22;10761;48.532;8.026;2022-11-20T08:44:26;6.80;99.90
21207;DHT22;10761;48.532;8.026;2022-11-20T08:46:51;6.80;99.90
21207;DHT22;10761;48.532;8.026;2022-11-20T08:49:17;6.90;99.90
21207;DHT22;10761;48.532;8.026;2022-11-20T08:51:43;6.90;99.90
21207;DHT22;10761;48.532;8.026;2022-11-20T08:54:09;7.00;99.90
21207;DHT22;10761;48.532;8.026;2022-11-20T08:56:35;7.00;99.90
21207;DHT22;10761;48.532;8.026;2022-11-20T08:59:01;7.00;99.90
21207;DHT22;10761;48.532;8.026;2022-11-20T09:01:27;7.00;99.90
21207;DHT22;10761;48.532;8.026;2022-11-20T09:03:57;7.00;99.90
21207;DHT22;10761;48.532;8.026;2022-11-20T09:06:25;7.00;99.90
21207;DHT22;10761;48.532;8.026;2022-11-20T09:08:54;7.00;99.90
21207;DHT22;10761;48.532;8.026;2022-11-20T09:11:20;7.10;99.90
21207;DHT22;10761;48.532;8.026;2022-11-20T09:13:46;7.20;99.90
21207;DHT22;10761;48.532;8.026;2022-11-20T09:16:11;7.30;99.90
21207;DHT22;10761;48.532;8.026;2022-11-20T09:18:37;7.30;99.90
21207;DHT22;10761;48.532;8.026;2022-11-20T09:21:06;7.30;99.90
21207;DHT22;10761;48.532;8.026;2022-11-20T09:23:34;7.40;99.90
21207;DHT22;10761;48.532;8.026;2022-11-20T09:26:11;7.40;99.90
21207;DHT22;10761;48.532;8.026;2022-11-20T09:28:37;7.30;99.90
21207;DHT22;10761;48.532;8.026;2022-11-20T09:31:07;7.30;99.90
21207;DHT22;10761;48.532;8.026;2022-11-20T09:33:32;7.20;99.90
21207;DHT22;10761;48.532;8.026;2022-11-20T09:35:58;7.20;99.90
21207;DHT22;10761;48.532;8.026;2022-11-20T09:38:24;7.20;99.90
21207;DHT22;10761;48.532;8.026;2022-11-20T09:40:56;7.10;99.90
21207;DHT22;10761;48.532;8.026;2022-11-20T09:46:29;7.20;99.90
21207;DHT22;10761;48.532;8.026;2022-11-20T09:54:16;7.20;99.90
21207;DHT22;10761;48.532;8.026;2022-11-20T09:56:45;7.30;99.90
21207;DHT22;10761;48.532;8.026;2022-11-20T09:59:34;7.40;99.90
21207;DHT22;10761;48.532;8.026;2022-11-20T10:02:05;7.40;99.90
21207;DHT22;10761;48.532;8.026;2022-11-20T10:04:32;7.50;99.90
21207;DHT22;10761;48.532;8.026;2022-11-20T10:07:12;7.50;99.90
21207;DHT22;10761;48.532;8.026;2022-11-20T10:09:41;7.50;99.90
21207;DHT22;10761;48.532;8.026;2022-11-20T10:20:37;7.60;99.90
21207;DHT22;10761;48.532;8.026;2022-11-20T10:28:49;7.80;99.90
21207;DHT22;10761;48.532;8.026;2022-11-20T10:31:11;7.90;99.90
21207;DHT22;10761;48.532;8.026;2022-11-20T10:33:42;8.00;99.90
21207;DHT22;10761;48.532;8.026;2022-11-20T10:36:17;8.00;99.90
21207;DHT22;10761;48.532;8.026;2022-11-20T10:41:34;8.10;99.90
21207;DHT22;10761;48.532;8.026;2022-11-20T10:44:12;8.10;99.90
21207;DHT22;10761;48.532;8.026;2022-11-20T10:46:49;8.20;99.90
21207;DHT22;10761;48.532;8.026;2022-11-20T10:49:16;8.20;99.90
21207;DHT22;10761;48.532;8.026;2022-11-20T10:51:50;8.20;99.90
21207;DHT22;10761;48.532;8.026;2022-11-20T10:54:27;8.20;99.90
21207;DHT22;10761;48.532;8.026;2022-11-20T10:57:04;8.30;99.90
21207;DHT22;10761;48.532;8.026;2022-11-20T11:02:22;8.40;99.90
21207;DHT22;10761;48.532;8.026;2022-11-20T11:04:50;8.40;99.90
21207;DHT22;10761;48.532;8.026;2022-11-20T11:07:38;8.50;99.90
21207;DHT22;10761;48.532;8.026;2022-11-20T11:10:14;9.10;99.90
21207;DHT22;10761;48.532;8.026;2022-11-20T11:12:43;9.60;99.90
21207;DHT22;10761;48.532;8.026;2022-11-20T11:15:40;9.60;99.90
21207;DHT22;10761;48.532;8.026;2022-11-20T11:18:10;9.90;99.90
21207;DHT22;10761;48.532;8.026;2022-11-20T11:20:36;9.70;99.90
21207;DHT22;10761;48.532;8.026;2022-11-20T11:23:02;9.40;99.90
21207;DHT22;10761;48.532;8.026;2022-11-20T11:25:35;9.50;99.90
21207;DHT22;10761;48.532;8.026;2022-11-20T11:28:02;10.30;99.90
21207;DHT22;10761;48.532;8.026;2022-11-20T11:30:30;10.90;99.90
21207;DHT22;10761;48.532;8.026;2022-11-20T11:33:09;11.50;99.90
21207;DHT22;10761;48.532;8.026;2022-11-20T11:35:44;11.60;99.90
21207;DHT22;10761;48.532;8.026;2022-11-20T11:38:17;11.20;99.90
21207;DHT22;10761;48.532;8.026;2022-11-20T11:40:46;11.00;99.90
21207;DHT22;10761;48.532;8.026;2022-11-20T11:43:19;11.60;99.90
21207;DHT22;10761;48.532;8.026;2022-11-20T11:46:25;11.40;99.90
21207;DHT22;10761;48.532;8.026;2022-11-20T11:56:57;9.40;99.90
21207;DHT22;10761;48.532;8.026;2022-11-20T11:59:34;9.20;99.90
21207;DHT22;10761;48.532;8.026;2022-11-20T12:11:04;9.20;99.90
21207;DHT22;10761;48.532;8.026;2022-11-20T12:13:36;9.20;99.90
21207;DHT22;10761;48.532;8.026;2022-11-20T12:16:05;9.10;99.90
21207;DHT22;10761;48.532;8.026;2022-11-20T12:18:34;9.20;99.90
21207;DHT22;10761;48.532;8.026;2022-11-20T12:26:13;9.00;99.90
21207;DHT22;10761;48.532;8.026;2022-11-20T12:34:24;8.90;99.90
21207;DHT22;10761;48.532;8.026;2022-11-20T12:37:00;8.90;99.90
21207;DHT22;10761;48.532;8.026;2022-11-20T12:39:35;9.00;99.90
21207;DHT22;10761;48.532;8.026;2022-11-20T12:56:35;9.10;99.90
21207;DHT22;10761;48.532;8.026;2022-11-20T13:07:32;9.40;99.90
21207;DHT22;10761;48.532;8.026;2022-11-20T13:09:59;9.30;99.90
21207;DHT22;10761;48.532;8.026;2022-11-20T13:15:24;9.30;99.90
21207;DHT22;10761;48.532;8.026;2022-11-20T13:17:55;9.40;99.90
21207;DHT22;10761;48.532;8.026;2022-11-20T13:20:22;9.40;99.90
21207;DHT22;10761;48.532;8.026;2022-11-20T13:22:53;9.70;99.90
21207;DHT22;10761;48.532;8.026;2022-11-20T13:25:29;10.00;99.90
21207;DHT22;10761;48.532;8.026;2022-11-20T13:27:57;10.10;99.90
21207;DHT22;10761;48.532;8.026;2022-11-20T13:30:25;10.20;99.90
21207;DHT22;10761;48.532;8.026;2022-11-20T13:33:05;10.40;99.90
21207;DHT22;10761;48.532;8.026;2022-11-20T13:35:34;10.30;99.90
21207;DHT22;10761;48.532;8.026;2022-11-20T13:38:11;10.20;99.90
21207;DHT22;10761;48.532;8.026;2022-11-20T13:40:57;10.30;99.90
21207;DHT22;10761;48.532;8.026;2022-11-20T13:46:06;10.30;99.90
21207;DHT22;10761;48.532;8.026;2022-11-20T13:48:38;10.20;99.90
21207;DHT22;10761;48.532;8.026;2022-11-20T13:53:52;9.90;99.90
21207;DHT22;10761;48.532;8.026;2022-11-20T14:01:49;9.80;99.90
21207;DHT22;10761;48.532;8.026;2022-11-20T14:04:20;9.90;99.90
21207;DHT22;10761;48.532;8.026;2022-11-20T14:06:50;9.90;99.90
21207;DHT22;10761;48.532;8.026;2022-11-20T14:09:28;10.00;99.90
21207;DHT22;10761;48.532;8.026;2022-11-20T14:11:54;10.00;99.90
21207;DHT22;10761;48.532;8.026;2022-11-20T14:14:21;9.90;99.90
21207;DHT22;10761;48.532;8.026;2022-11-20T14:16:48;9.80;99.90
21207;DHT22;10761;48.532;8.026;2022-11-20T14:21:52;9.50;99.90
21207;DHT22;10761;48.532;8.026;2022-11-20T14:24:20;9.40;99.90
21207;DHT22;10761;48.532;8.026;2022-11-20T14:26:47;9.30;99.90
21207;DHT22;10761;48.532;8.026;2022-11-20T14:29:15;9.30;99.90
21207;DHT22;10761;48.532;8.026;2022-11-20T14:31:42;9.20;99.90
21207;DHT22;10761;48.532;8.026;2022-11-20T14:34:21;9.20;99.90
21207;DHT22;10761;48.532;8.026;2022-11-20T14:36:47;9.20;99.90
21207;DHT22;10761;48.532;8.026;2022-11-20T14:39:36;9.30;99.90
21207;DHT22;10761;48.532;8.026;2022-11-20T14:42:11;9.40;99.90
21207;DHT22;10761;48.532;8.026;2022-11-20T14:44:39;9.40;99.90
21207;DHT22;10761;48.532;8.026;2022-11-20T14:47:05;9.40;99.90
21207;DHT22;10761;48.532;8.026;2022-11-20T14:49:31;9.30;99.90
21207;DHT22;10761;48.532;8.026;2022-11-20T14:52:18;9.10;99.90
21207;DHT22;10761;48.532;8.026;2022-11-20T14:54:45;9.10;99.90
21207;DHT22;10761;48.532;8.026;2022-11-20T14:57:22;9.10;99.90
21207;DHT22;10761;48.532;8.026;2022-11-20T14:59:47;9.00;99.90
21207;DHT22;10761;48.532;8.026;2022-11-20T15:02:13;9.00;99.90
21207;DHT22;10761;48.532;8.026;2022-11-20T15:04:50;8.90;99.90
21207;DHT22;10761;48.532;8.026;2022-11-20T15:07:27;8.90;99.90
21207;DHT22;10761;48.532;8.026;2022-11-20T15:12:26;8.90;99.90
21207;DHT22;10761;48.532;8.026;2022-11-20T15:14:51;8.80;99.90
21207;DHT22;10761;48.532;8.026;2022-11-20T15:17:17;8.70;99.90
21207;DHT22;10761;48.532;8.026;2022-11-20T15:19:43;8.60;99.90
21207;DHT22;10761;48.532;8.026;2022-11-20T15:22:12;8.40;99.90
21207;DHT22;10761;48.532;8.026;2022-11-20T15:24:41;8.30;99.90
21207;DHT22;10761;48.532;8.026;2022-11-20T15:27:08;8.30;99.90
21207;DHT22;10761;48.532;8.026;2022-11-20T15:29:34;8.20;99.90
21207;DHT22;10761;48.532;8.026;2022-11-20T15:32:00;8.20;99.90
21207;DHT22;10761;48.532;8.026;2022-11-20T15:34:27;8.10;99.90
21207;DHT22;10761;48.532;8.026;2022-11-20T15:36:53;8.20;99.90
21207;DHT22;10761;48.532;8.026;2022-11-20T15:39:20;8.10;99.90
21207;DHT22;10761;48.532;8.026;2022-11-20T15:41:46;8.10;99.90
21207;DHT22;10761;48.532;8.026;2022-11-20T15:44:12;8.10;99.90
21207;DHT22;10761;48.532;8.026;2022-11-20T15:46:41;8.10;99.90
21207;DHT22;10761;48.532;8.026;2022-11-20T15:49:13;8.10;99.90
21207;DHT22;10761;48.532;8.026;2022-11-20T15:51:48;8.10;99.90
21207;DHT22;10761;48.532;8.026;2022-11-20T15:54:19;8.10;99.90
21207;DHT22;10761;48.532;8.026;2022-11-20T15:56:47;8.10;99.90
21207;DHT22;10761;48.532;8.026;2022-11-20T15:59:12;8.20;99.90
21207;DHT22;10761;48.532;8.026;2022-11-20T16:01:41;8.20;99.90
21207;DHT22;10761;48.532;8.026;2022-11-20T16:04:14;8.20;99.90
21207;DHT22;10761;48.532;8.026;2022-11-20T16:06:40;8.20;99.90
21207;DHT22;10761;48.532;8.026;2022-11-20T16:09:06;8.20;99.90
21207;DHT22;10761;48.532;8.026;2022-11-20T16:11:32;8.20;99.90
21207;DHT22;10761;48.532;8.026;2022-11-20T16:13:58;8.20;99.90
21207;DHT22;10761;48.532;8.026;2022-11-20T16:16:42;8.10;99.90
21207;DHT22;10761;48.532;8.026;2022-11-20T16:19:14;8.20;99.90
21207;DHT22;10761;48.532;8.026;2022-11-20T16:21:41;8.10;99.90
21207;DHT22;10761;48.532;8.026;2022-11-20T16:24:08;8.10;99.90
21207;DHT22;10761;48.532;8.026;2022-11-20T16:26:35;8.10;99.90
21207;DHT22;10761;48.532;8.026;2022-11-20T16:29:02;8.10;99.90
21207;DHT22;10761;48.532;8.026;2022-11-20T16:31:28;8.20;99.90
21207;DHT22;10761;48.532;8.026;2022-11-20T16:33:56;8.20;99.90
21207;DHT22;10761;48.532;8.026;2022-11-20T16:36:24;8.20;99.90
21207;DHT22;10761;48.532;8.026;2022-11-20T16:38:54;8.10;99.90
21207;DHT22;10761;48.532;8.026;2022-11-20T16:41:21;8.20;99.90
21207;DHT22;10761;48.532;8.026;2022-11-20T16:43:49;8.20;99.90
21207;DHT22;10761;48.532;8.026;2022-11-20T16:46:19;8.20;99.90
21207;DHT22;10761;48.532;8.026;2022-11-20T16:48:55;8.20;99.90
21207;DHT22;10761;48.532;8.026;2022-11-20T16:51:22;8.20;99.90
21207;DHT22;10761;48.532;8.026;2022-11-20T16:53:48;8.20;99.90
21207;DHT22;10761;48.532;8.026;2022-11-20T16:56:17;8.20;99.90
21207;DHT22;10761;48.532;8.026;2022-11-20T16:58:47;8.20;99.90
21207;DHT22;10761;48.532;8.026;2022-11-20T17:01:18;8.30;99.90
21207;DHT22;10761;48.532;8.026;2022-11-20T17:03:46;8.30;99.90
21207;DHT22;10761;48.532;8.026;2022-11-20T17:06:17;8.30;99.90
21207;DHT22;10761;48.532;8.026;2022-11-20T17:08:43;8.30;99.90
21207;DHT22;10761;48.532;8.026;2022-11-20T17:11:11;8.30;99.90
21207;DHT22;10761;48.532;8.026;2022-11-20T17:13:37;8.30;99.90
21207;DHT22;10761;48.532;8.026;2022-11-20T17:16:05;8.30;99.90
21207;DHT22;10761;48.532;8.026;2022-11-20T17:18:30;8.30;99.90
21207;DHT22;10761;48.532;8.026;2022-11-20T17:20:56;8.30;99.90
21207;DHT22;10761;48.532;8.026;2022-11-20T17:23:22;8.30;99.90
21207;DHT22;10761;48.532;8.026;2022-11-20T17:25:48;8.30;99.90
21207;DHT22;10761;48.532;8.026;2022-11-20T17:28:13;8.30;99.90
21207;DHT22;10761;48.532;8.026;2022-11-20T17:30:39;8.40;99.90